sensor_id;sensor_type;location;lat;lon;timestamp;P1;durP1;ratioP1;P2;durP2;ratioP2
24206;SDS011;12351;52.284;9.160;2023-04-19T00:01:48;7.25;;;5.00;;
24206;SDS011;12351;52.284;9.160;2023-04-19T00:04:34;6.47;;;5.05;;
24206;SDS011;12351;52.284;9.160;2023-04-19T00:07:22;9.33;;;4.80;;
24206;SDS011;12351;52.284;9.160;2023-04-19T00:10:09;8.88;;;4.72;;
24206;SDS011;12351;52.284;9.160;2023-04-19T00:12:56;7.35;;;4.97;;
24206;SDS011;12351;52.284;9.160;2023-04-19T00:15:43;6.15;;;4.47;;
24206;SDS011;12351;52.284;9.160;2023-04-19T00:18:30;5.50;;;4.28;;
24206;SDS011;12351;52.284;9.160;2023-04-19T00:21:17;6.85;;;5.00;;
24206;SDS011;12351;52.284;9.160;2023-04-19T00:24:04;7.53;;;4.92;;
24206;SDS011;12351;52.284;9.160;2023-04-19T00:26:51;7.50;;;4.72;;
24206;SDS011;12351;52.284;9.160;2023-04-19T00:29:39;6.83;;;4.65;;
24206;SDS011;12351;52.284;9.160;2023-04-19T00:32:26;7.47;;;4.83;;
24206;SDS011;12351;52.284;9.160;2023-04-19T00:35:13;6.83;;;4.25;;
24206;SDS011;12351;52.284;9.160;2023-04-19T00:38:00;5.83;;;4.60;;
24206;SDS011;12351;52.284;9.160;2023-04-19T00:40:47;5.67;;;4.33;;
24206;SDS011;12351;52.284;9.160;2023-04-19T00:43:34;6.75;;;4.47;;
24206;SDS011;12351;52.284;9.160;2023-04-19T00:46:21;6.92;;;4.00;;
24206;SDS011;12351;52.284;9.160;2023-04-19T00:49:09;5.10;;;3.98;;
24206;SDS011;12351;52.284;9.160;2023-04-19T00:51:56;7.40;;;3.72;;
24206;SDS011;12351;52.284;9.160;2023-04-19T00:54:43;6.05;;;3.60;;
24206;SDS011;12351;52.284;9.160;2023-04-19T00:57:30;6.78;;;3.70;;
24206;SDS011;12351;52.284;9.160;2023-04-19T01:00:18;6.87;;;4.00;;
24206;SDS011;12351;52.284;9.160;2023-04-19T01:03:05;6.95;;;4.10;;
24206;SDS011;12351;52.284;9.160;2023-04-19T01:05:52;4.72;;;3.40;;
24206;SDS011;12351;52.284;9.160;2023-04-19T01:08:41;8.10;;;3.80;;
24206;SDS011;12351;52.284;9.160;2023-04-19T01:11:28;7.22;;;3.40;;
24206;SDS011;12351;52.284;9.160;2023-04-19T01:14:15;8.03;;;3.20;;
24206;SDS011;12351;52.284;9.160;2023-04-19T01:17:04;8.20;;;3.77;;
24206;SDS011;12351;52.284;9.160;2023-04-19T01:22:42;4.97;;;2.80;;
24206;SDS011;12351;52.284;9.160;2023-04-19T01:25:29;6.05;;;2.85;;
24206;SDS011;12351;52.284;9.160;2023-04-19T01:28:16;4.05;;;2.62;;
24206;SDS011;12351;52.284;9.160;2023-04-19T01:31:03;4.28;;;2.60;;
24206;SDS011;12351;52.284;9.160;2023-04-19T01:33:50;4.22;;;2.62;;
24206;SDS011;12351;52.284;9.160;2023-04-19T01:36:37;4.42;;;2.58;;
24206;SDS011;12351;52.284;9.160;2023-04-19T01:39:24;4.47;;;2.75;;
24206;SDS011;12351;52.284;9.160;2023-04-19T01:42:11;6.62;;;2.60;;
24206;SDS011;12351;52.284;9.160;2023-04-19T01:44:58;5.62;;;2.80;;
24206;SDS011;12351;52.284;9.160;2023-04-19T01:47:45;3.25;;;1.98;;
24206;SDS011;12351;52.284;9.160;2023-04-19T01:50:32;3.02;;;2.17;;
24206;SDS011;12351;52.284;9.160;2023-04-19T01:53:19;4.33;;;2.42;;
24206;SDS011;12351;52.284;9.160;2023-04-19T01:56:06;3.98;;;2.20;;
24206;SDS011;12351;52.284;9.160;2023-04-19T01:58:53;3.72;;;2.10;;
24206;SDS011;12351;52.284;9.160;2023-04-19T02:01:40;3.92;;;2.40;;
24206;SDS011;12351;52.284;9.160;2023-04-19T02:04:27;5.15;;;2.60;;
24206;SDS011;12351;52.284;9.160;2023-04-19T02:07:14;3.27;;;2.33;;
24206;SDS011;12351;52.284;9.160;2023-04-19T02:10:01;3.50;;;2.30;;
24206;SDS011;12351;52.284;9.160;2023-04-19T02:12:50;8.20;;;2.25;;
24206;SDS011;12351;52.284;9.160;2023-04-19T02:15:37;4.22;;;2.40;;
24206;SDS011;12351;52.284;9.160;2023-04-19T02:18:24;4.78;;;2.25;;
24206;SDS011;12351;52.284;9.160;2023-04-19T02:21:11;4.33;;;2.30;;
24206;SDS011;12351;52.284;9.160;2023-04-19T02:23:58;3.22;;;2.17;;
24206;SDS011;12351;52.284;9.160;2023-04-19T02:26:45;4.37;;;2.43;;
24206;SDS011;12351;52.284;9.160;2023-04-19T02:29:32;4.67;;;2.50;;
24206;SDS011;12351;52.284;9.160;2023-04-19T02:32:19;4.30;;;2.40;;
24206;SDS011;12351;52.284;9.160;2023-04-19T02:35:05;4.70;;;2.37;;
24206;SDS011;12351;52.284;9.160;2023-04-19T02:37:52;4.33;;;2.13;;
24206;SDS011;12351;52.284;9.160;2023-04-19T02:40:38;7.70;;;2.40;;
24206;SDS011;12351;52.284;9.160;2023-04-19T02:43:25;5.58;;;2.50;;
24206;SDS011;12351;52.284;9.160;2023-04-19T02:46:12;7.53;;;2.63;;
24206;SDS011;12351;52.284;9.160;2023-04-19T02:48:59;4.37;;;2.50;;
24206;SDS011;12351;52.284;9.160;2023-04-19T02:51:46;6.40;;;2.50;;
24206;SDS011;12351;52.284;9.160;2023-04-19T02:54:34;4.80;;;2.25;;
24206;SDS011;12351;52.284;9.160;2023-04-19T02:57:21;4.70;;;2.47;;
24206;SDS011;12351;52.284;9.160;2023-04-19T03:00:09;5.03;;;2.40;;
24206;SDS011;12351;52.284;9.160;2023-04-19T03:02:56;4.87;;;2.53;;
24206;SDS011;12351;52.284;9.160;2023-04-19T03:05:42;3.53;;;2.17;;
24206;SDS011;12351;52.284;9.160;2023-04-19T03:08:29;3.70;;;2.58;;
24206;SDS011;12351;52.284;9.160;2023-04-19T03:11:17;4.08;;;2.60;;
24206;SDS011;12351;52.284;9.160;2023-04-19T03:14:04;3.87;;;2.33;;
24206;SDS011;12351;52.284;9.160;2023-04-19T03:16:51;4.40;;;2.77;;
24206;SDS011;12351;52.284;9.160;2023-04-19T03:19:37;6.63;;;2.60;;
24206;SDS011;12351;52.284;9.160;2023-04-19T03:22:25;4.45;;;2.60;;
24206;SDS011;12351;52.284;9.160;2023-04-19T03:25:11;5.17;;;2.43;;
24206;SDS011;12351;52.284;9.160;2023-04-19T03:27:58;4.50;;;2.60;;
24206;SDS011;12351;52.284;9.160;2023-04-19T03:30:44;5.60;;;2.53;;
24206;SDS011;12351;52.284;9.160;2023-04-19T03:33:31;5.53;;;2.47;;
24206;SDS011;12351;52.284;9.160;2023-04-19T03:36:17;3.77;;;2.27;;
24206;SDS011;12351;52.284;9.160;2023-04-19T03:39:04;2.67;;;1.97;;
24206;SDS011;12351;52.284;9.160;2023-04-19T03:44:39;3.27;;;2.27;;
24206;SDS011;12351;52.284;9.160;2023-04-19T03:47:26;5.67;;;2.50;;
24206;SDS011;12351;52.284;9.160;2023-04-19T03:50:12;3.80;;;2.47;;
24206;SDS011;12351;52.284;9.160;2023-04-19T03:52:58;5.57;;;2.40;;
24206;SDS011;12351;52.284;9.160;2023-04-19T03:55:45;3.97;;;2.33;;
24206;SDS011;12351;52.284;9.160;2023-04-19T03:58:32;5.87;;;2.60;;
24206;SDS011;12351;52.284;9.160;2023-04-19T04:01:19;4.73;;;2.50;;
24206;SDS011;12351;52.284;9.160;2023-04-19T04:04:07;5.60;;;2.97;;
24206;SDS011;12351;52.284;9.160;2023-04-19T04:06:55;7.20;;;2.93;;
24206;SDS011;12351;52.284;9.160;2023-04-19T04:09:41;5.67;;;2.57;;
24206;SDS011;12351;52.284;9.160;2023-04-19T04:12:29;5.17;;;2.80;;
24206;SDS011;12351;52.284;9.160;2023-04-19T04:15:16;5.47;;;2.57;;
24206;SDS011;12351;52.284;9.160;2023-04-19T04:18:03;5.20;;;2.30;;
24206;SDS011;12351;52.284;9.160;2023-04-19T04:20:50;3.77;;;2.33;;
24206;SDS011;12351;52.284;9.160;2023-04-19T04:23:36;6.60;;;2.90;;
24206;SDS011;12351;52.284;9.160;2023-04-19T04:26:22;5.53;;;2.50;;
24206;SDS011;12351;52.284;9.160;2023-04-19T04:29:09;5.33;;;2.60;;
24206;SDS011;12351;52.284;9.160;2023-04-19T04:31:55;4.33;;;2.50;;
24206;SDS011;12351;52.284;9.160;2023-04-19T04:34:42;6.23;;;2.73;;
24206;SDS011;12351;52.284;9.160;2023-04-19T04:37:30;5.40;;;2.83;;
24206;SDS011;12351;52.284;9.160;2023-04-19T04:40:18;7.30;;;2.43;;
24206;SDS011;12351;52.284;9.160;2023-04-19T04:43:04;3.40;;;2.60;;
24206;SDS011;12351;52.284;9.160;2023-04-19T04:45:51;5.00;;;2.50;;
24206;SDS011;12351;52.284;9.160;2023-04-19T04:48:38;3.80;;;2.70;;
24206;SDS011;12351;52.284;9.160;2023-04-19T04:51:25;2.87;;;2.20;;
24206;SDS011;12351;52.284;9.160;2023-04-19T04:54:11;5.60;;;2.47;;
24206;SDS011;12351;52.284;9.160;2023-04-19T04:56:58;6.13;;;2.70;;
24206;SDS011;12351;52.284;9.160;2023-04-19T04:59:44;6.67;;;3.17;;
24206;SDS011;12351;52.284;9.160;2023-04-19T05:02:31;4.27;;;2.80;;
24206;SDS011;12351;52.284;9.160;2023-04-19T05:05:17;5.70;;;2.70;;
24206;SDS011;12351;52.284;9.160;2023-04-19T05:08:07;5.97;;;2.77;;
24206;SDS011;12351;52.284;9.160;2023-04-19T05:10:53;5.60;;;2.50;;
24206;SDS011;12351;52.284;9.160;2023-04-19T05:13:40;7.07;;;2.63;;
24206;SDS011;12351;52.284;9.160;2023-04-19T05:16:27;5.20;;;2.73;;
24206;SDS011;12351;52.284;9.160;2023-04-19T05:19:13;6.17;;;2.50;;
24206;SDS011;12351;52.284;9.160;2023-04-19T05:22:00;7.10;;;2.50;;
24206;SDS011;12351;52.284;9.160;2023-04-19T05:24:46;6.37;;;2.50;;
24206;SDS011;12351;52.284;9.160;2023-04-19T05:27:33;4.33;;;2.50;;
24206;SDS011;12351;52.284;9.160;2023-04-19T05:30:20;5.97;;;2.70;;
24206;SDS011;12351;52.284;9.160;2023-04-19T05:33:07;5.27;;;2.50;;
24206;SDS011;12351;52.284;9.160;2023-04-19T05:35:54;5.17;;;2.27;;
24206;SDS011;12351;52.284;9.160;2023-04-19T05:38:40;6.07;;;2.30;;
24206;SDS011;12351;52.284;9.160;2023-04-19T05:41:27;5.50;;;2.43;;
24206;SDS011;12351;52.284;9.160;2023-04-19T05:44:14;4.70;;;2.33;;
24206;SDS011;12351;52.284;9.160;2023-04-19T05:47:03;4.17;;;2.53;;
24206;SDS011;12351;52.284;9.160;2023-04-19T05:49:52;5.20;;;2.57;;
24206;SDS011;12351;52.284;9.160;2023-04-19T05:52:39;3.87;;;2.60;;
24206;SDS011;12351;52.284;9.160;2023-04-19T05:55:26;5.87;;;2.33;;
24206;SDS011;12351;52.284;9.160;2023-04-19T05:58:15;6.07;;;2.67;;
24206;SDS011;12351;52.284;9.160;2023-04-19T06:01:03;5.40;;;2.43;;
24206;SDS011;12351;52.284;9.160;2023-04-19T06:03:53;6.97;;;2.77;;
24206;SDS011;12351;52.284;9.160;2023-04-19T06:06:43;3.97;;;2.20;;
24206;SDS011;12351;52.284;9.160;2023-04-19T06:09:35;4.30;;;2.23;;
24206;SDS011;12351;52.284;9.160;2023-04-19T06:12:24;4.23;;;2.53;;
24206;SDS011;12351;52.284;9.160;2023-04-19T06:15:12;6.63;;;2.93;;
24206;SDS011;12351;52.284;9.160;2023-04-19T06:17:59;6.70;;;3.13;;
24206;SDS011;12351;52.284;9.160;2023-04-19T06:20:48;4.93;;;2.43;;
24206;SDS011;12351;52.284;9.160;2023-04-19T06:23:38;5.07;;;2.50;;
24206;SDS011;12351;52.284;9.160;2023-04-19T06:26:26;5.93;;;2.50;;
24206;SDS011;12351;52.284;9.160;2023-04-19T06:29:14;3.87;;;2.43;;
24206;SDS011;12351;52.284;9.160;2023-04-19T06:32:02;7.17;;;2.80;;
24206;SDS011;12351;52.284;9.160;2023-04-19T06:34:51;7.07;;;2.50;;
24206;SDS011;12351;52.284;9.160;2023-04-19T06:37:38;6.80;;;2.70;;
24206;SDS011;12351;52.284;9.160;2023-04-19T06:40:27;4.47;;;2.20;;
24206;SDS011;12351;52.284;9.160;2023-04-19T06:43:14;7.23;;;2.57;;
24206;SDS011;12351;52.284;9.160;2023-04-19T06:46:02;4.90;;;2.40;;
24206;SDS011;12351;52.284;9.160;2023-04-19T06:48:52;4.83;;;2.50;;
24206;SDS011;12351;52.284;9.160;2023-04-19T06:51:39;5.37;;;2.30;;
24206;SDS011;12351;52.284;9.160;2023-04-19T06:54:27;4.70;;;2.17;;
24206;SDS011;12351;52.284;9.160;2023-04-19T06:57:15;4.93;;;2.40;;
24206;SDS011;12351;52.284;9.160;2023-04-19T07:00:04;4.73;;;2.17;;
24206;SDS011;12351;52.284;9.160;2023-04-19T07:05:45;3.50;;;2.03;;
24206;SDS011;12351;52.284;9.160;2023-04-19T07:08:33;3.83;;;2.07;;
24206;SDS011;12351;52.284;9.160;2023-04-19T07:11:23;3.30;;;2.20;;
24206;SDS011;12351;52.284;9.160;2023-04-19T07:14:10;3.20;;;1.97;;
24206;SDS011;12351;52.284;9.160;2023-04-19T07:16:58;3.50;;;1.82;;
24206;SDS011;12351;52.284;9.160;2023-04-19T07:19:47;4.08;;;2.15;;
24206;SDS011;12351;52.284;9.160;2023-04-19T07:22:34;5.75;;;2.27;;
24206;SDS011;12351;52.284;9.160;2023-04-19T07:25:21;5.08;;;2.08;;
24206;SDS011;12351;52.284;9.160;2023-04-19T07:28:10;3.10;;;1.90;;
24206;SDS011;12351;52.284;9.160;2023-04-19T07:31:01;5.90;;;1.82;;
24206;SDS011;12351;52.284;9.160;2023-04-19T07:33:48;4.70;;;2.00;;
24206;SDS011;12351;52.284;9.160;2023-04-19T07:36:37;4.92;;;1.77;;
24206;SDS011;12351;52.284;9.160;2023-04-19T07:39:27;5.03;;;2.25;;
24206;SDS011;12351;52.284;9.160;2023-04-19T07:42:15;4.55;;;1.87;;
24206;SDS011;12351;52.284;9.160;2023-04-19T07:45:03;3.75;;;2.12;;
24206;SDS011;12351;52.284;9.160;2023-04-19T07:47:52;3.33;;;2.10;;
24206;SDS011;12351;52.284;9.160;2023-04-19T07:50:39;5.90;;;1.90;;
24206;SDS011;12351;52.284;9.160;2023-04-19T07:53:28;4.75;;;2.15;;
24206;SDS011;12351;52.284;9.160;2023-04-19T07:56:16;4.40;;;1.77;;
24206;SDS011;12351;52.284;9.160;2023-04-19T07:59:04;3.02;;;1.70;;
24206;SDS011;12351;52.284;9.160;2023-04-19T08:01:51;2.42;;;1.80;;
24206;SDS011;12351;52.284;9.160;2023-04-19T08:04:38;3.20;;;1.67;;
24206;SDS011;12351;52.284;9.160;2023-04-19T08:07:25;4.60;;;2.08;;
24206;SDS011;12351;52.284;9.160;2023-04-19T08:10:17;3.83;;;1.80;;
24206;SDS011;12351;52.284;9.160;2023-04-19T08:13:04;7.62;;;1.80;;
24206;SDS011;12351;52.284;9.160;2023-04-19T08:15:53;2.60;;;1.98;;
24206;SDS011;12351;52.284;9.160;2023-04-19T08:18:43;2.70;;;1.80;;
24206;SDS011;12351;52.284;9.160;2023-04-19T08:21:33;3.52;;;1.72;;
24206;SDS011;12351;52.284;9.160;2023-04-19T08:27:12;3.83;;;1.80;;
24206;SDS011;12351;52.284;9.160;2023-04-19T08:30:00;5.08;;;1.90;;
24206;SDS011;12351;52.284;9.160;2023-04-19T08:32:50;3.33;;;1.70;;
24206;SDS011;12351;52.284;9.160;2023-04-19T08:35:39;2.92;;;1.90;;
24206;SDS011;12351;52.284;9.160;2023-04-19T08:38:29;2.40;;;1.47;;
24206;SDS011;12351;52.284;9.160;2023-04-19T08:41:17;2.08;;;1.60;;
24206;SDS011;12351;52.284;9.160;2023-04-19T08:44:04;5.25;;;2.00;;
24206;SDS011;12351;52.284;9.160;2023-04-19T08:46:53;3.50;;;1.62;;
24206;SDS011;12351;52.284;9.160;2023-04-19T08:49:44;2.35;;;1.55;;
24206;SDS011;12351;52.284;9.160;2023-04-19T08:52:33;4.95;;;2.00;;
24206;SDS011;12351;52.284;9.160;2023-04-19T08:55:25;1.95;;;1.42;;
24206;SDS011;12351;52.284;9.160;2023-04-19T08:58:15;1.95;;;1.60;;
24206;SDS011;12351;52.284;9.160;2023-04-19T09:01:07;3.42;;;1.72;;
24206;SDS011;12351;52.284;9.160;2023-04-19T09:03:57;3.05;;;1.72;;
24206;SDS011;12351;52.284;9.160;2023-04-19T09:06:50;5.00;;;1.50;;
24206;SDS011;12351;52.284;9.160;2023-04-19T09:09:42;4.65;;;1.55;;
24206;SDS011;12351;52.284;9.160;2023-04-19T09:12:28;4.40;;;1.50;;
24206;SDS011;12351;52.284;9.160;2023-04-19T09:15:20;3.77;;;1.60;;
24206;SDS011;12351;52.284;9.160;2023-04-19T09:18:09;2.47;;;1.67;;
24206;SDS011;12351;52.284;9.160;2023-04-19T09:20:58;3.62;;;1.80;;
24206;SDS011;12351;52.284;9.160;2023-04-19T09:23:47;6.70;;;2.02;;
24206;SDS011;12351;52.284;9.160;2023-04-19T09:26:40;2.67;;;1.57;;
24206;SDS011;12351;52.284;9.160;2023-04-19T09:29:30;2.25;;;1.50;;
24206;SDS011;12351;52.284;9.160;2023-04-19T09:32:21;3.87;;;1.80;;
24206;SDS011;12351;52.284;9.160;2023-04-19T09:35:09;2.62;;;1.40;;
24206;SDS011;12351;52.284;9.160;2023-04-19T09:38:00;1.80;;;1.40;;
24206;SDS011;12351;52.284;9.160;2023-04-19T09:40:49;3.42;;;1.80;;
24206;SDS011;12351;52.284;9.160;2023-04-19T09:43:39;4.40;;;1.90;;
24206;SDS011;12351;52.284;9.160;2023-04-19T09:49:22;3.47;;;1.47;;
24206;SDS011;12351;52.284;9.160;2023-04-19T09:52:12;3.58;;;1.50;;
24206;SDS011;12351;52.284;9.160;2023-04-19T09:55:01;2.65;;;1.50;;
24206;SDS011;12351;52.284;9.160;2023-04-19T09:57:54;3.22;;;1.60;;
24206;SDS011;12351;52.284;9.160;2023-04-19T10:00:42;2.20;;;1.70;;
24206;SDS011;12351;52.284;9.160;2023-04-19T10:03:32;3.42;;;1.57;;
24206;SDS011;12351;52.284;9.160;2023-04-19T10:06:22;3.50;;;1.70;;
24206;SDS011;12351;52.284;9.160;2023-04-19T10:09:11;4.10;;;1.50;;
24206;SDS011;12351;52.284;9.160;2023-04-19T10:11:59;2.55;;;1.52;;
24206;SDS011;12351;52.284;9.160;2023-04-19T10:14:50;3.83;;;1.65;;
24206;SDS011;12351;52.284;9.160;2023-04-19T10:17:41;3.37;;;1.80;;
24206;SDS011;12351;52.284;9.160;2023-04-19T10:20:31;2.33;;;1.50;;
24206;SDS011;12351;52.284;9.160;2023-04-19T10:23:19;3.17;;;1.50;;
24206;SDS011;12351;52.284;9.160;2023-04-19T10:26:10;3.15;;;1.50;;
24206;SDS011;12351;52.284;9.160;2023-04-19T10:29:00;3.77;;;1.70;;
24206;SDS011;12351;52.284;9.160;2023-04-19T10:31:49;3.47;;;1.62;;
24206;SDS011;12351;52.284;9.160;2023-04-19T10:34:39;2.35;;;1.55;;
24206;SDS011;12351;52.284;9.160;2023-04-19T10:37:29;3.08;;;1.35;;
24206;SDS011;12351;52.284;9.160;2023-04-19T10:40:52;2.15;;;1.20;;
24206;SDS011;12351;52.284;9.160;2023-04-19T10:51:41;4.20;;;1.60;;
24206;SDS011;12351;52.284;9.160;2023-04-19T10:54:32;4.58;;;1.60;;
24206;SDS011;12351;52.284;9.160;2023-04-19T10:57:22;3.65;;;1.60;;
24206;SDS011;12351;52.284;9.160;2023-04-19T11:08:46;3.85;;;1.50;;
24206;SDS011;12351;52.284;9.160;2023-04-19T11:11:34;1.72;;;1.20;;
24206;SDS011;12351;52.284;9.160;2023-04-19T11:14:27;2.30;;;1.20;;
24206;SDS011;12351;52.284;9.160;2023-04-19T11:17:16;5.37;;;1.10;;
24206;SDS011;12351;52.284;9.160;2023-04-19T11:20:08;2.12;;;1.32;;
24206;SDS011;12351;52.284;9.160;2023-04-19T11:22:58;4.40;;;1.40;;
24206;SDS011;12351;52.284;9.160;2023-04-19T11:25:46;3.47;;;1.00;;
24206;SDS011;12351;52.284;9.160;2023-04-19T11:28:38;4.00;;;1.22;;
24206;SDS011;12351;52.284;9.160;2023-04-19T11:31:31;6.42;;;1.60;;
24206;SDS011;12351;52.284;9.160;2023-04-19T11:37:09;4.22;;;1.12;;
24206;SDS011;12351;52.284;9.160;2023-04-19T11:39:59;2.90;;;1.17;;
24206;SDS011;12351;52.284;9.160;2023-04-19T11:45:40;2.50;;;1.10;;
24206;SDS011;12351;52.284;9.160;2023-04-19T11:48:31;3.12;;;1.27;;
24206;SDS011;12351;52.284;9.160;2023-04-19T11:51:20;1.90;;;1.25;;
24206;SDS011;12351;52.284;9.160;2023-04-19T11:54:12;2.55;;;1.10;;
24206;SDS011;12351;52.284;9.160;2023-04-19T11:57:02;2.95;;;1.40;;
24206;SDS011;12351;52.284;9.160;2023-04-19T12:02:41;2.75;;;1.25;;
24206;SDS011;12351;52.284;9.160;2023-04-19T12:05:29;3.62;;;1.35;;
24206;SDS011;12351;52.284;9.160;2023-04-19T12:08:28;3.62;;;1.30;;
24206;SDS011;12351;52.284;9.160;2023-04-19T12:11:10;2.33;;;1.20;;
24206;SDS011;12351;52.284;9.160;2023-04-19T12:22:28;2.58;;;1.30;;
24206;SDS011;12351;52.284;9.160;2023-04-19T12:25:19;2.77;;;1.50;;
24206;SDS011;12351;52.284;9.160;2023-04-19T12:28:09;7.45;;;1.42;;
24206;SDS011;12351;52.284;9.160;2023-04-19T12:30:57;7.22;;;1.40;;
24206;SDS011;12351;52.284;9.160;2023-04-19T12:33:44;4.08;;;1.30;;
24206;SDS011;12351;52.284;9.160;2023-04-19T12:36:33;1.67;;;1.20;;
24206;SDS011;12351;52.284;9.160;2023-04-19T12:39:21;4.28;;;1.50;;
24206;SDS011;12351;52.284;9.160;2023-04-19T12:42:12;3.95;;;1.37;;
24206;SDS011;12351;52.284;9.160;2023-04-19T12:45:03;2.08;;;1.47;;
24206;SDS011;12351;52.284;9.160;2023-04-19T12:47:50;4.53;;;1.40;;
24206;SDS011;12351;52.284;9.160;2023-04-19T12:50:38;2.98;;;1.42;;
24206;SDS011;12351;52.284;9.160;2023-04-19T12:53:25;4.17;;;1.70;;
24206;SDS011;12351;52.284;9.160;2023-04-19T12:56:14;3.67;;;1.67;;
24206;SDS011;12351;52.284;9.160;2023-04-19T12:59:04;3.77;;;1.55;;
24206;SDS011;12351;52.284;9.160;2023-04-19T13:01:50;1.60;;;1.50;;
24206;SDS011;12351;52.284;9.160;2023-04-19T13:04:37;5.05;;;1.80;;
24206;SDS011;12351;52.284;9.160;2023-04-19T13:07:26;3.12;;;1.50;;
24206;SDS011;12351;52.284;9.160;2023-04-19T13:10:14;1.70;;;1.50;;
24206;SDS011;12351;52.284;9.160;2023-04-19T13:13:05;4.42;;;2.00;;
24206;SDS011;12351;52.284;9.160;2023-04-19T13:15:54;3.25;;;1.45;;
24206;SDS011;12351;52.284;9.160;2023-04-19T13:18:45;4.03;;;1.67;;
24206;SDS011;12351;52.284;9.160;2023-04-19T13:21:34;6.62;;;1.70;;
24206;SDS011;12351;52.284;9.160;2023-04-19T13:24:21;8.00;;;1.87;;
24206;SDS011;12351;52.284;9.160;2023-04-19T13:27:08;2.90;;;2.00;;
24206;SDS011;12351;52.284;9.160;2023-04-19T13:29:57;3.62;;;1.70;;
24206;SDS011;12351;52.284;9.160;2023-04-19T13:32:46;6.80;;;1.80;;
24206;SDS011;12351;52.284;9.160;2023-04-19T13:35:35;3.33;;;1.90;;
24206;SDS011;12351;52.284;9.160;2023-04-19T13:38:24;2.77;;;1.70;;
24206;SDS011;12351;52.284;9.160;2023-04-19T13:41:12;6.20;;;1.92;;
24206;SDS011;12351;52.284;9.160;2023-04-19T13:44:01;5.37;;;1.85;;
24206;SDS011;12351;52.284;9.160;2023-04-19T13:46:48;4.67;;;1.90;;
24206;SDS011;12351;52.284;9.160;2023-04-19T13:49:36;3.58;;;1.70;;
24206;SDS011;12351;52.284;9.160;2023-04-19T13:52:25;3.83;;;1.82;;
24206;SDS011;12351;52.284;9.160;2023-04-19T13:55:12;3.47;;;2.00;;
24206;SDS011;12351;52.284;9.160;2023-04-19T13:58:00;2.62;;;1.80;;
24206;SDS011;12351;52.284;9.160;2023-04-19T14:00:47;4.12;;;1.90;;
24206;SDS011;12351;52.284;9.160;2023-04-19T14:03:35;4.08;;;1.90;;
24206;SDS011;12351;52.284;9.160;2023-04-19T14:06:23;3.83;;;2.00;;
24206;SDS011;12351;52.284;9.160;2023-04-19T14:09:12;4.37;;;2.10;;
24206;SDS011;12351;52.284;9.160;2023-04-19T14:12:04;5.70;;;2.33;;
24206;SDS011;12351;52.284;9.160;2023-04-19T14:14:52;3.77;;;1.92;;
24206;SDS011;12351;52.284;9.160;2023-04-19T14:17:41;4.25;;;2.08;;
24206;SDS011;12351;52.284;9.160;2023-04-19T14:20:30;4.35;;;2.30;;
24206;SDS011;12351;52.284;9.160;2023-04-19T14:23:19;2.35;;;1.85;;
24206;SDS011;12351;52.284;9.160;2023-04-19T14:26:06;4.22;;;2.25;;
24206;SDS011;12351;52.284;9.160;2023-04-19T14:28:55;4.97;;;2.30;;
24206;SDS011;12351;52.284;9.160;2023-04-19T14:31:44;5.60;;;2.67;;
24206;SDS011;12351;52.284;9.160;2023-04-19T14:34:34;7.95;;;2.33;;
24206;SDS011;12351;52.284;9.160;2023-04-19T14:37:24;3.47;;;2.47;;
24206;SDS011;12351;52.284;9.160;2023-04-19T14:40:13;4.83;;;2.40;;
24206;SDS011;12351;52.284;9.160;2023-04-19T14:43:02;4.03;;;2.30;;
24206;SDS011;12351;52.284;9.160;2023-04-19T14:45:49;4.03;;;2.25;;
24206;SDS011;12351;52.284;9.160;2023-04-19T14:48:38;9.40;;;2.60;;
24206;SDS011;12351;52.284;9.160;2023-04-19T14:51:26;7.45;;;2.27;;
24206;SDS011;12351;52.284;9.160;2023-04-19T14:54:15;5.85;;;2.50;;
24206;SDS011;12351;52.284;9.160;2023-04-19T14:57:02;6.33;;;2.98;;
24206;SDS011;12351;52.284;9.160;2023-04-19T15:02:42;6.22;;;2.55;;
24206;SDS011;12351;52.284;9.160;2023-04-19T15:05:32;3.37;;;2.42;;
24206;SDS011;12351;52.284;9.160;2023-04-19T15:08:22;4.60;;;2.30;;
24206;SDS011;12351;52.284;9.160;2023-04-19T15:11:11;5.60;;;2.72;;
24206;SDS011;12351;52.284;9.160;2023-04-19T15:14:00;3.20;;;2.35;;
24206;SDS011;12351;52.284;9.160;2023-04-19T15:16:49;3.17;;;2.60;;
24206;SDS011;12351;52.284;9.160;2023-04-19T15:19:37;6.90;;;2.52;;
24206;SDS011;12351;52.284;9.160;2023-04-19T15:22:27;5.70;;;2.30;;
24206;SDS011;12351;52.284;9.160;2023-04-19T15:25:16;4.10;;;2.62;;
24206;SDS011;12351;52.284;9.160;2023-04-19T15:28:06;4.40;;;2.30;;
24206;SDS011;12351;52.284;9.160;2023-04-19T15:30:56;6.35;;;2.20;;
24206;SDS011;12351;52.284;9.160;2023-04-19T15:33:45;2.87;;;2.02;;
24206;SDS011;12351;52.284;9.160;2023-04-19T15:36:34;4.70;;;2.10;;
24206;SDS011;12351;52.284;9.160;2023-04-19T15:39:23;5.28;;;2.10;;
24206;SDS011;12351;52.284;9.160;2023-04-19T15:42:11;3.47;;;1.90;;
24206;SDS011;12351;52.284;9.160;2023-04-19T15:45:00;4.25;;;2.12;;
24206;SDS011;12351;52.284;9.160;2023-04-19T15:47:47;4.12;;;2.42;;
24206;SDS011;12351;52.284;9.160;2023-04-19T15:50:36;4.53;;;2.05;;
24206;SDS011;12351;52.284;9.160;2023-04-19T15:53:24;6.55;;;2.10;;
24206;SDS011;12351;52.284;9.160;2023-04-19T15:56:10;5.25;;;2.20;;
24206;SDS011;12351;52.284;9.160;2023-04-19T15:58:58;7.47;;;2.17;;
24206;SDS011;12351;52.284;9.160;2023-04-19T16:01:46;4.67;;;1.90;;
24206;SDS011;12351;52.284;9.160;2023-04-19T16:04:34;4.28;;;2.33;;
24206;SDS011;12351;52.284;9.160;2023-04-19T16:07:24;6.75;;;2.00;;
24206;SDS011;12351;52.284;9.160;2023-04-19T16:10:12;3.55;;;2.45;;
24206;SDS011;12351;52.284;9.160;2023-04-19T16:13:03;5.10;;;2.15;;
24206;SDS011;12351;52.284;9.160;2023-04-19T16:15:51;3.72;;;2.20;;
24206;SDS011;12351;52.284;9.160;2023-04-19T16:18:40;3.30;;;2.20;;
24206;SDS011;12351;52.284;9.160;2023-04-19T16:21:28;5.17;;;2.20;;
24206;SDS011;12351;52.284;9.160;2023-04-19T16:24:17;5.72;;;2.15;;
24206;SDS011;12351;52.284;9.160;2023-04-19T16:27:06;5.75;;;2.02;;
24206;SDS011;12351;52.284;9.160;2023-04-19T16:29:54;3.50;;;2.25;;
24206;SDS011;12351;52.284;9.160;2023-04-19T16:32:42;4.37;;;2.30;;
24206;SDS011;12351;52.284;9.160;2023-04-19T16:35:30;5.83;;;2.20;;
24206;SDS011;12351;52.284;9.160;2023-04-19T16:38:19;6.53;;;2.72;;
24206;SDS011;12351;52.284;9.160;2023-04-19T16:41:07;3.37;;;2.17;;
24206;SDS011;12351;52.284;9.160;2023-04-19T16:43:55;3.17;;;1.80;;
24206;SDS011;12351;52.284;9.160;2023-04-19T16:46:46;5.05;;;2.10;;
24206;SDS011;12351;52.284;9.160;2023-04-19T16:49:32;5.83;;;2.40;;
24206;SDS011;12351;52.284;9.160;2023-04-19T16:52:19;5.78;;;1.90;;
24206;SDS011;12351;52.284;9.160;2023-04-19T16:55:09;9.35;;;2.35;;
24206;SDS011;12351;52.284;9.160;2023-04-19T16:57:57;4.70;;;2.12;;
24206;SDS011;12351;52.284;9.160;2023-04-19T17:00:47;5.30;;;2.77;;
24206;SDS011;12351;52.284;9.160;2023-04-19T17:03:38;5.87;;;3.02;;
24206;SDS011;12351;52.284;9.160;2023-04-19T17:06:26;7.95;;;2.00;;
24206;SDS011;12351;52.284;9.160;2023-04-19T17:09:16;10.30;;;2.30;;
24206;SDS011;12351;52.284;9.160;2023-04-19T17:12:03;3.92;;;2.00;;
24206;SDS011;12351;52.284;9.160;2023-04-19T17:14:51;10.30;;;2.25;;
24206;SDS011;12351;52.284;9.160;2023-04-19T17:17:40;11.60;;;5.95;;
24206;SDS011;12351;52.284;9.160;2023-04-19T17:20:29;5.60;;;3.47;;
24206;SDS011;12351;52.284;9.160;2023-04-19T17:23:18;3.47;;;2.00;;
24206;SDS011;12351;52.284;9.160;2023-04-19T17:26:06;3.17;;;1.95;;
24206;SDS011;12351;52.284;9.160;2023-04-19T17:28:54;5.17;;;2.17;;
24206;SDS011;12351;52.284;9.160;2023-04-19T17:31:43;3.17;;;2.02;;
24206;SDS011;12351;52.284;9.160;2023-04-19T17:34:34;4.97;;;2.17;;
24206;SDS011;12351;52.284;9.160;2023-04-19T17:37:23;5.45;;;2.33;;
24206;SDS011;12351;52.284;9.160;2023-04-19T17:40:11;6.42;;;2.20;;
24206;SDS011;12351;52.284;9.160;2023-04-19T17:43:02;5.37;;;2.50;;
24206;SDS011;12351;52.284;9.160;2023-04-19T17:45:52;3.47;;;1.90;;